Stella Del Nord — 2ISC3 — position and weather

sailwx.info

Track history (hours):
 
Tides and Currents Weather Stations Pressure Air Temp Water Temp Dewpoint Dewpoint Depression Visibility Wind Speed Wind Dir Waves Ship Positions

Stella Del Nord

Last reported at 2018-Jul-16 16:31 UTC. Time now 2018-Jul-20 23:43 UTC.
Position N 38°19' E 015°10'.

Length 26 m.

Type: Pleasure craft. MMSI: 235112353.

Date/timePositionNaut miles runAvg speedWind from/ knotsBaromVisibWave heightAir tempDewpointWater temp
2018-Jul-16 16:31N 38°19' E 015°10'1 9.4
2018-Jul-16 16:25N 38°18' E 015°11'4 9.1
2018-Jul-16 15:59N 38°16' E 015°15'3 4.5
2018-Jul-16 15:25N 38°13' E 015°15'0 0.0
2018-Jul-16 14:55N 38°13' E 015°15'0 0.0
2018-Jul-16 14:25N 38°13' E 015°15'0 0.0
2018-Jul-16 13:55N 38°13' E 015°15'0 0.0
2018-Jul-16 13:25N 38°13' E 015°15'0 0.0
2018-Jul-16 12:43N 38°13' E 015°15'0 0.1
2018-Jul-16 12:30N 38°13' E 015°15'0 0.0
2018-Jul-16 12:00N 38°13' E 015°15'0 0.0
2018-Jul-16 11:30N 38°13' E 015°15'0 0.0
2018-Jul-16 11:00N 38°13' E 015°15'0 0.0
2018-Jul-16 10:30N 38°13' E 015°15'0 0.0
2018-Jul-16 10:00N 38°13' E 015°15'0 0.0
2018-Jul-16 09:30N 38°13' E 015°15'0 0.0
2018-Jul-16 09:00N 38°13' E 015°15'0 0.0
2018-Jul-16 08:30N 38°13' E 015°15'0 0.0
2018-Jul-16 08:00N 38°13' E 015°15'0 0.0
2018-Jul-16 07:30N 38°13' E 015°15'0 0.0
2018-Jul-16 07:00N 38°13' E 015°15'0 0.0
2018-Jul-16 06:30N 38°13' E 015°15'0 0.0
2018-Jul-16 06:00N 38°13' E 015°15'0 0.0
2018-Jul-16 05:30N 38°13' E 015°15'0 0.0
2018-Jul-16 05:00N 38°13' E 015°15'0 0.0
2018-Jul-16 04:24N 38°13' E 015°15'0 0.0
2018-Jul-16 04:00N 38°13' E 015°15'0 0.0
2018-Jul-16 03:30N 38°13' E 015°15'0 0.0
2018-Jul-16 02:54N 38°13' E 015°15'0 0.0
2018-Jul-16 02:30N 38°13' E 015°15'0 0.0
2018-Jul-16 02:00N 38°13' E 015°15'0 0.0
2018-Jul-16 01:24N 38°13' E 015°15'0 0.0
2018-Jul-16 00:54N 38°13' E 015°15'0 0.0
2018-Jul-16 00:30N 38°13' E 015°15'0 0.0
2018-Jul-15 23:54N 38°13' E 015°15'0 0.0
2018-Jul-15 23:30N 38°13' E 015°15'0 0.0
2018-Jul-15 23:00N 38°13' E 015°15'0 0.0
2018-Jul-15 22:30N 38°13' E 015°15'0 0.0
2018-Jul-15 22:00N 38°13' E 015°15'0 0.0
2018-Jul-15 21:30N 38°13' E 015°15'0 0.0
2018-Jul-15 21:00N 38°13' E 015°15'0 0.0
2018-Jul-15 20:30N 38°13' E 015°15'0 0.0
2018-Jul-15 20:00N 38°13' E 015°15'0 0.0
2018-Jul-15 19:30N 38°13' E 015°15'0 0.0
2018-Jul-15 19:00N 38°13' E 015°15'0 0.0
2018-Jul-15 18:24N 38°13' E 015°15'0 0.0
2018-Jul-15 18:00N 38°13' E 015°15'0 0.0
2018-Jul-15 17:30N 38°13' E 015°15'0 0.0
2018-Jul-15 17:00N 38°13' E 015°15'0 0.0
2018-Jul-15 16:30N 38°13' E 015°15'0 0.0
2018-Jul-15 16:00N 38°13' E 015°15'0 0.0
2018-Jul-15 15:24N 38°13' E 015°15'0 0.0
2018-Jul-15 15:00N 38°13' E 015°15'0 0.1
2018-Jul-15 14:30N 38°13' E 015°15'4 7.9
2018-Jul-15 13:59N 38°15' E 015°19'510.2
2018-Jul-15 13:30N 38°17' E 015°25'10 4.7
2018-Jul-15 11:21N 38°13' E 015°37'  
Track history (hours):
 
Tides and Currents Weather Stations Pressure Air Temp Water Temp Dewpoint Dewpoint Depression Visibility Wind Speed Wind Dir Waves Ship Positions

Stella Del Nord

Last reported at 2018-Jul-16 16:31 UTC. Time now 2018-Jul-20 23:43 UTC.
Position N 38°19' E 015°10'.

Length 26 m.

Type: Pleasure craft. MMSI: 235112353.

Date/timePositionNaut miles runAvg speedWind from/ knotsBaromVisibWave heightAir tempDewpointWater temp
2018-Jul-16 16:31N 38°19' E 015°10'1 9.4
2018-Jul-16 16:25N 38°18' E 015°11'4 9.1
2018-Jul-16 15:59N 38°16' E 015°15'3 4.5
2018-Jul-16 15:25N 38°13' E 015°15'0 0.0
2018-Jul-16 14:55N 38°13' E 015°15'0 0.0
2018-Jul-16 14:25N 38°13' E 015°15'0 0.0
2018-Jul-16 13:55N 38°13' E 015°15'0 0.0
2018-Jul-16 13:25N 38°13' E 015°15'0 0.0
2018-Jul-16 12:43N 38°13' E 015°15'0 0.1
2018-Jul-16 12:30N 38°13' E 015°15'0 0.0
2018-Jul-16 12:00N 38°13' E 015°15'0 0.0
2018-Jul-16 11:30N 38°13' E 015°15'0 0.0
2018-Jul-16 11:00N 38°13' E 015°15'0 0.0
2018-Jul-16 10:30N 38°13' E 015°15'0 0.0
2018-Jul-16 10:00N 38°13' E 015°15'0 0.0
2018-Jul-16 09:30N 38°13' E 015°15'0 0.0
2018-Jul-16 09:00N 38°13' E 015°15'0 0.0
2018-Jul-16 08:30N 38°13' E 015°15'0 0.0
2018-Jul-16 08:00N 38°13' E 015°15'0 0.0
2018-Jul-16 07:30N 38°13' E 015°15'0 0.0
2018-Jul-16 07:00N 38°13' E 015°15'0 0.0
2018-Jul-16 06:30N 38°13' E 015°15'0 0.0
2018-Jul-16 06:00N 38°13' E 015°15'0 0.0
2018-Jul-16 05:30N 38°13' E 015°15'0 0.0
2018-Jul-16 05:00N 38°13' E 015°15'0 0.0
2018-Jul-16 04:24N 38°13' E 015°15'0 0.0
2018-Jul-16 04:00N 38°13' E 015°15'0 0.0
2018-Jul-16 03:30N 38°13' E 015°15'0 0.0
2018-Jul-16 02:54N 38°13' E 015°15'0 0.0
2018-Jul-16 02:30N 38°13' E 015°15'0 0.0
2018-Jul-16 02:00N 38°13' E 015°15'0 0.0
2018-Jul-16 01:24N 38°13' E 015°15'0 0.0
2018-Jul-16 00:54N 38°13' E 015°15'0 0.0
2018-Jul-16 00:30N 38°13' E 015°15'0 0.0
2018-Jul-15 23:54N 38°13' E 015°15'0 0.0
2018-Jul-15 23:30N 38°13' E 015°15'0 0.0
2018-Jul-15 23:00N 38°13' E 015°15'0 0.0
2018-Jul-15 22:30N 38°13' E 015°15'0 0.0
2018-Jul-15 22:00N 38°13' E 015°15'0 0.0
2018-Jul-15 21:30N 38°13' E 015°15'0 0.0
2018-Jul-15 21:00N 38°13' E 015°15'0 0.0
2018-Jul-15 20:30N 38°13' E 015°15'0 0.0
2018-Jul-15 20:00N 38°13' E 015°15'0 0.0
2018-Jul-15 19:30N 38°13' E 015°15'0 0.0
2018-Jul-15 19:00N 38°13' E 015°15'0 0.0
2018-Jul-15 18:24N 38°13' E 015°15'0 0.0
2018-Jul-15 18:00N 38°13' E 015°15'0 0.0
2018-Jul-15 17:30N 38°13' E 015°15'0 0.0
2018-Jul-15 17:00N 38°13' E 015°15'0 0.0
2018-Jul-15 16:30N 38°13' E 015°15'0 0.0
2018-Jul-15 16:00N 38°13' E 015°15'0 0.0
2018-Jul-15 15:24N 38°13' E 015°15'0 0.0
2018-Jul-15 15:00N 38°13' E 015°15'0 0.1
2018-Jul-15 14:30N 38°13' E 015°15'4 7.9
2018-Jul-15 13:59N 38°15' E 015°19'510.2
2018-Jul-15 13:30N 38°17' E 015°25'10 4.7
2018-Jul-15 11:21N 38°13' E 015°37'  

Dump ship's entire track history